sensor_id;sensor_type;location;lat;lon;timestamp;P1;durP1;ratioP1;P2;durP2;ratioP2
48809;SDS011;40070;47.322;18.784;2024-01-11T00:00:12;21.11;;;11.59;;
48809;SDS011;40070;47.322;18.784;2024-01-11T00:02:17;24.90;;;10.09;;
48809;SDS011;40070;47.322;18.784;2024-01-11T00:04:18;27.93;;;12.09;;
48809;SDS011;40070;47.322;18.784;2024-01-11T00:06:19;31.41;;;14.19;;
48809;SDS011;40070;47.322;18.784;2024-01-11T00:08:20;20.31;;;10.79;;
48809;SDS011;40070;47.322;18.784;2024-01-11T00:10:21;22.61;;;11.30;;
48809;SDS011;40070;47.322;18.784;2024-01-11T00:12:22;26.13;;;13.30;;
48809;SDS011;40070;47.322;18.784;2024-01-11T00:14:23;31.73;;;12.70;;
48809;SDS011;40070;47.322;18.784;2024-01-11T00:16:24;29.32;;;13.80;;
48809;SDS011;40070;47.322;18.784;2024-01-11T00:18:25;26.63;;;10.60;;
48809;SDS011;40070;47.322;18.784;2024-01-11T00:20:26;36.60;;;17.10;;
48809;SDS011;40070;47.322;18.784;2024-01-11T00:22:27;27.92;;;15.20;;
48809;SDS011;40070;47.322;18.784;2024-01-11T00:24:28;22.34;;;11.30;;
48809;SDS011;40070;47.322;18.784;2024-01-11T00:26:29;22.44;;;10.60;;
48809;SDS011;40070;47.322;18.784;2024-01-11T00:28:30;21.24;;;11.20;;
48809;SDS011;40070;47.322;18.784;2024-01-11T00:30:31;17.35;;;7.80;;
48809;SDS011;40070;47.322;18.784;2024-01-11T00:32:32;20.84;;;9.10;;
48809;SDS011;40070;47.322;18.784;2024-01-11T00:34:32;19.35;;;7.80;;
48809;SDS011;40070;47.322;18.784;2024-01-11T00:36:34;16.16;;;7.90;;
48809;SDS011;40070;47.322;18.784;2024-01-11T00:38:35;19.85;;;7.90;;
48809;SDS011;40070;47.322;18.784;2024-01-11T00:40:36;16.06;;;7.60;;
48809;SDS011;40070;47.322;18.784;2024-01-11T00:42:37;25.83;;;9.80;;
48809;SDS011;40070;47.322;18.784;2024-01-11T00:44:38;21.94;;;8.70;;
48809;SDS011;40070;47.322;18.784;2024-01-11T00:46:39;19.35;;;9.00;;
48809;SDS011;40070;47.322;18.784;2024-01-11T00:48:40;13.96;;;8.10;;
48809;SDS011;40070;47.322;18.784;2024-01-11T00:50:41;17.55;;;7.70;;
48809;SDS011;40070;47.322;18.784;2024-01-11T00:52:42;19.15;;;8.40;;
48809;SDS011;40070;47.322;18.784;2024-01-11T00:54:43;18.75;;;9.20;;
48809;SDS011;40070;47.322;18.784;2024-01-11T00:56:48;18.65;;;7.60;;
48809;SDS011;40070;47.322;18.784;2024-01-11T00:58:48;15.85;;;7.40;;
48809;SDS011;40070;47.322;18.784;2024-01-11T01:00:49;21.14;;;8.10;;
48809;SDS011;40070;47.322;18.784;2024-01-11T01:02:51;15.05;;;6.90;;
48809;SDS011;40070;47.322;18.784;2024-01-11T01:04:52;15.45;;;8.30;;
48809;SDS011;40070;47.322;18.784;2024-01-11T01:06:53;15.45;;;8.20;;
48809;SDS011;40070;47.322;18.784;2024-01-11T01:08:55;15.85;;;7.60;;
48809;SDS011;40070;47.322;18.784;2024-01-11T01:10:55;15.65;;;7.90;;
48809;SDS011;40070;47.322;18.784;2024-01-11T01:12:56;19.84;;;8.80;;
48809;SDS011;40070;47.322;18.784;2024-01-11T01:14:57;23.93;;;10.80;;
48809;SDS011;40070;47.322;18.784;2024-01-11T01:16:58;15.35;;;7.80;;
48809;SDS011;40070;47.322;18.784;2024-01-11T01:18:59;14.65;;;7.20;;
48809;SDS011;40070;47.322;18.784;2024-01-11T01:21:00;19.03;;;8.50;;
48809;SDS011;40070;47.322;18.784;2024-01-11T01:23:01;29.69;;;8.00;;
48809;SDS011;40070;47.322;18.784;2024-01-11T01:25:02;15.64;;;6.80;;
48809;SDS011;40070;47.322;18.784;2024-01-11T01:27:03;10.56;;;6.50;;
48809;SDS011;40070;47.322;18.784;2024-01-11T01:29:04;16.65;;;8.40;;
48809;SDS011;40070;47.322;18.784;2024-01-11T01:31:05;17.94;;;8.20;;
48809;SDS011;40070;47.322;18.784;2024-01-11T01:33:06;15.85;;;8.70;;
48809;SDS011;40070;47.322;18.784;2024-01-11T01:35:07;20.83;;;8.10;;
48809;SDS011;40070;47.322;18.784;2024-01-11T01:37:08;13.16;;;7.40;;
48809;SDS011;40070;47.322;18.784;2024-01-11T01:39:09;25.33;;;9.40;;
48809;SDS011;40070;47.322;18.784;2024-01-11T01:41:10;16.56;;;8.90;;
48809;SDS011;40070;47.322;18.784;2024-01-11T01:43:14;18.05;;;9.30;;
48809;SDS011;40070;47.322;18.784;2024-01-11T01:45:15;23.14;;;10.50;;
48809;SDS011;40070;47.322;18.784;2024-01-11T01:47:16;24.04;;;9.50;;
48809;SDS011;40070;47.322;18.784;2024-01-11T01:49:17;20.55;;;9.70;;
48809;SDS011;40070;47.322;18.784;2024-01-11T01:51:18;26.23;;;11.60;;
48809;SDS011;40070;47.322;18.784;2024-01-11T01:53:20;24.14;;;12.20;;
48809;SDS011;40070;47.322;18.784;2024-01-11T01:55:21;31.73;;;10.40;;
48809;SDS011;40070;47.322;18.784;2024-01-11T01:57:23;31.13;;;13.60;;
48809;SDS011;40070;47.322;18.784;2024-01-11T01:59:24;24.25;;;10.40;;
48809;SDS011;40070;47.322;18.784;2024-01-11T02:01:26;28.24;;;12.90;;
48809;SDS011;40070;47.322;18.784;2024-01-11T02:03:27;20.75;;;9.80;;
48809;SDS011;40070;47.322;18.784;2024-01-11T02:05:28;26.84;;;11.70;;
48809;SDS011;40070;47.322;18.784;2024-01-11T02:07:29;20.25;;;10.00;;
48809;SDS011;40070;47.322;18.784;2024-01-11T02:09:31;20.06;;;9.90;;
48809;SDS011;40070;47.322;18.784;2024-01-11T02:11:32;17.36;;;8.70;;
48809;SDS011;40070;47.322;18.784;2024-01-11T02:13:34;17.56;;;7.40;;
48809;SDS011;40070;47.322;18.784;2024-01-11T02:15:35;25.34;;;9.50;;
48809;SDS011;40070;47.322;18.784;2024-01-11T02:17:36;18.36;;;7.90;;
48809;SDS011;40070;47.322;18.784;2024-01-11T02:19:38;21.35;;;7.70;;
48809;SDS011;40070;47.322;18.784;2024-01-11T02:21:42;20.15;;;8.60;;
48809;SDS011;40070;47.322;18.784;2024-01-11T02:24:19;21.15;;;7.40;;
48809;SDS011;40070;47.322;18.784;2024-01-11T02:25:47;15.96;;;7.60;;
48809;SDS011;40070;47.322;18.784;2024-01-11T02:27:48;18.26;;;8.50;;
48809;SDS011;40070;47.322;18.784;2024-01-11T02:29:49;17.66;;;6.30;;
48809;SDS011;40070;47.322;18.784;2024-01-11T02:31:50;19.95;;;9.00;;
48809;SDS011;40070;47.322;18.784;2024-01-11T02:33:51;28.14;;;10.40;;
48809;SDS011;40070;47.322;18.784;2024-01-11T02:35:52;36.82;;;12.10;;
48809;SDS011;40070;47.322;18.784;2024-01-11T02:37:53;35.32;;;11.30;;
48809;SDS011;40070;47.322;18.784;2024-01-11T02:39:55;42.00;;;11.30;;
48809;SDS011;40070;47.322;18.784;2024-01-11T02:41:57;28.53;;;11.50;;
48809;SDS011;40070;47.322;18.784;2024-01-11T02:43:57;30.44;;;10.90;;
48809;SDS011;40070;47.322;18.784;2024-01-11T02:45:58;22.55;;;10.00;;
48809;SDS011;40070;47.322;18.784;2024-01-11T02:47:59;18.26;;;7.70;;
48809;SDS011;40070;47.322;18.784;2024-01-11T02:50:00;16.26;;;7.90;;
48809;SDS011;40070;47.322;18.784;2024-01-11T02:52:01;20.15;;;8.70;;
48809;SDS011;40070;47.322;18.784;2024-01-11T02:54:02;23.64;;;8.70;;
48809;SDS011;40070;47.322;18.784;2024-01-11T02:56:03;22.85;;;9.10;;
48809;SDS011;40070;47.322;18.784;2024-01-11T02:58:04;23.04;;;7.60;;
48809;SDS011;40070;47.322;18.784;2024-01-11T03:00:05;23.44;;;7.70;;
48809;SDS011;40070;47.322;18.784;2024-01-11T03:02:06;25.14;;;9.70;;
48809;SDS011;40070;47.322;18.784;2024-01-11T03:04:07;23.04;;;9.60;;
48809;SDS011;40070;47.322;18.784;2024-01-11T03:06:08;24.54;;;9.60;;
48809;SDS011;40070;47.322;18.784;2024-01-11T03:08:09;18.75;;;9.10;;
48809;SDS011;40070;47.322;18.784;2024-01-11T03:10:10;17.95;;;7.90;;
48809;SDS011;40070;47.322;18.784;2024-01-11T03:12:11;25.34;;;7.40;;
48809;SDS011;40070;47.322;18.784;2024-01-11T03:14:12;22.34;;;7.60;;
48809;SDS011;40070;47.322;18.784;2024-01-11T03:16:13;16.36;;;7.70;;
48809;SDS011;40070;47.322;18.784;2024-01-11T03:18:14;19.45;;;9.60;;
48809;SDS011;40070;47.322;18.784;2024-01-11T03:20:15;18.26;;;9.20;;
48809;SDS011;40070;47.322;18.784;2024-01-11T03:22:16;33.62;;;9.90;;
48809;SDS011;40070;47.322;18.784;2024-01-11T03:24:17;21.85;;;8.70;;
48809;SDS011;40070;47.322;18.784;2024-01-11T03:26:18;25.44;;;9.20;;
48809;SDS011;40070;47.322;18.784;2024-01-11T03:28:19;19.45;;;8.70;;
48809;SDS011;40070;47.322;18.784;2024-01-11T03:30:20;15.16;;;7.00;;
48809;SDS011;40070;47.322;18.784;2024-01-11T03:32:21;20.85;;;9.10;;
48809;SDS011;40070;47.322;18.784;2024-01-11T03:34:22;17.96;;;9.10;;
48809;SDS011;40070;47.322;18.784;2024-01-11T03:36:24;21.85;;;8.90;;
48809;SDS011;40070;47.322;18.784;2024-01-11T03:38:24;26.74;;;7.90;;
48809;SDS011;40070;47.322;18.784;2024-01-11T03:40:25;11.67;;;6.90;;
48809;SDS011;40070;47.322;18.784;2024-01-11T03:42:26;19.46;;;8.80;;
48809;SDS011;40070;47.322;18.784;2024-01-11T03:44:27;16.86;;;9.50;;
48809;SDS011;40070;47.322;18.784;2024-01-11T03:46:28;19.36;;;8.70;;
48809;SDS011;40070;47.322;18.784;2024-01-11T03:48:30;18.86;;;8.80;;
48809;SDS011;40070;47.322;18.784;2024-01-11T03:50:31;18.76;;;9.40;;
48809;SDS011;40070;47.322;18.784;2024-01-11T03:52:32;13.87;;;8.40;;
48809;SDS011;40070;47.322;18.784;2024-01-11T03:54:33;17.96;;;8.10;;
48809;SDS011;40070;47.322;18.784;2024-01-11T03:56:37;18.95;;;7.70;;
48809;SDS011;40070;47.322;18.784;2024-01-11T03:58:36;21.45;;;8.10;;
48809;SDS011;40070;47.322;18.784;2024-01-11T04:00:37;13.57;;;7.00;;
48809;SDS011;40070;47.322;18.784;2024-01-11T04:02:38;19.85;;;8.60;;
48809;SDS011;40070;47.322;18.784;2024-01-11T04:04:39;20.52;;;8.90;;
48809;SDS011;40070;47.322;18.784;2024-01-11T04:06:40;19.63;;;9.10;;
48809;SDS011;40070;47.322;18.784;2024-01-11T04:08:41;19.43;;;8.90;;
48809;SDS011;40070;47.322;18.784;2024-01-11T04:10:42;14.05;;;6.60;;
48809;SDS011;40070;47.322;18.784;2024-01-11T04:12:43;21.31;;;7.50;;
48809;SDS011;40070;47.322;18.784;2024-01-11T04:14:44;17.34;;;9.10;;
48809;SDS011;40070;47.322;18.784;2024-01-11T04:16:45;17.63;;;8.10;;
48809;SDS011;40070;47.322;18.784;2024-01-11T04:18:46;15.34;;;8.50;;
48809;SDS011;40070;47.322;18.784;2024-01-11T04:20:47;16.74;;;7.60;;
48809;SDS011;40070;47.322;18.784;2024-01-11T04:22:48;16.14;;;7.90;;
48809;SDS011;40070;47.322;18.784;2024-01-11T04:24:48;15.93;;;7.30;;
48809;SDS011;40070;47.322;18.784;2024-01-11T04:26:49;20.81;;;9.40;;
48809;SDS011;40070;47.322;18.784;2024-01-11T04:28:51;28.46;;;8.20;;
48809;SDS011;40070;47.322;18.784;2024-01-11T04:30:53;15.83;;;7.40;;
48809;SDS011;40070;47.322;18.784;2024-01-11T04:32:54;17.81;;;8.70;;
48809;SDS011;40070;47.322;18.784;2024-01-11T04:34:55;17.82;;;7.00;;
48809;SDS011;40070;47.322;18.784;2024-01-11T04:36:56;21.00;;;8.50;;
48809;SDS011;40070;47.322;18.784;2024-01-11T04:38:57;17.42;;;7.80;;
48809;SDS011;40070;47.322;18.784;2024-01-11T04:40:58;16.53;;;7.70;;
48809;SDS011;40070;47.322;18.784;2024-01-11T04:42:59;20.91;;;10.00;;
48809;SDS011;40070;47.322;18.784;2024-01-11T04:45:00;25.89;;;10.50;;
48809;SDS011;40070;47.322;18.784;2024-01-11T04:47:01;35.51;;;8.00;;
48809;SDS011;40070;47.322;18.784;2024-01-11T04:49:02;15.23;;;8.60;;
48809;SDS011;40070;47.322;18.784;2024-01-11T04:51:03;14.43;;;8.00;;
48809;SDS011;40070;47.322;18.784;2024-01-11T04:53:03;15.78;;;7.50;;
48809;SDS011;40070;47.322;18.784;2024-01-11T04:55:04;24.38;;;8.40;;
48809;SDS011;40070;47.322;18.784;2024-01-11T04:57:05;17.92;;;7.60;;
48809;SDS011;40070;47.322;18.784;2024-01-11T04:59:07;21.59;;;8.30;;
48809;SDS011;40070;47.322;18.784;2024-01-11T05:01:17;16.12;;;7.90;;
48809;SDS011;40070;47.322;18.784;2024-01-11T05:03:09;16.81;;;8.80;;
48809;SDS011;40070;47.322;18.784;2024-01-11T05:05:10;10.74;;;6.30;;
48809;SDS011;40070;47.322;18.784;2024-01-11T05:07:11;15.83;;;7.70;;
48809;SDS011;40070;47.322;18.784;2024-01-11T05:09:12;18.71;;;7.60;;
48809;SDS011;40070;47.322;18.784;2024-01-11T05:11:19;17.60;;;7.40;;
48809;SDS011;40070;47.322;18.784;2024-01-11T05:13:13;15.81;;;8.30;;
48809;SDS011;40070;47.322;18.784;2024-01-11T05:15:14;15.33;;;8.10;;
48809;SDS011;40070;47.322;18.784;2024-01-11T05:17:15;21.79;;;8.90;;
48809;SDS011;40070;47.322;18.784;2024-01-11T05:19:16;18.61;;;8.70;;
48809;SDS011;40070;47.322;18.784;2024-01-11T05:21:18;18.12;;;7.80;;
48809;SDS011;40070;47.322;18.784;2024-01-11T05:23:19;14.33;;;8.30;;
48809;SDS011;40070;47.322;18.784;2024-01-11T05:25:20;16.53;;;7.90;;
48809;SDS011;40070;47.322;18.784;2024-01-11T05:27:21;16.81;;;8.00;;
48809;SDS011;40070;47.322;18.784;2024-01-11T05:29:22;18.40;;;8.30;;
48809;SDS011;40070;47.322;18.784;2024-01-11T05:31:23;16.42;;;8.50;;
48809;SDS011;40070;47.322;18.784;2024-01-11T05:33:24;18.51;;;7.10;;
48809;SDS011;40070;47.322;18.784;2024-01-11T05:35:25;19.90;;;8.50;;
48809;SDS011;40070;47.322;18.784;2024-01-11T05:37:26;16.13;;;7.10;;
48809;SDS011;40070;47.322;18.784;2024-01-11T05:39:27;19.30;;;7.70;;
48809;SDS011;40070;47.322;18.784;2024-01-11T05:41:28;18.01;;;7.80;;
48809;SDS011;40070;47.322;18.784;2024-01-11T05:43:29;15.42;;;7.30;;
48809;SDS011;40070;47.322;18.784;2024-01-11T05:45:30;17.21;;;8.00;;
48809;SDS011;40070;47.322;18.784;2024-01-11T05:47:31;17.11;;;8.70;;
48809;SDS011;40070;47.322;18.784;2024-01-11T05:49:32;17.22;;;7.10;;
48809;SDS011;40070;47.322;18.784;2024-01-11T05:51:33;19.31;;;9.70;;
48809;SDS011;40070;47.322;18.784;2024-01-11T05:53:34;13.83;;;7.70;;
48809;SDS011;40070;47.322;18.784;2024-01-11T05:55:36;17.72;;;7.80;;
48809;SDS011;40070;47.322;18.784;2024-01-11T05:57:36;16.82;;;9.10;;
48809;SDS011;40070;47.322;18.784;2024-01-11T05:59:37;16.43;;;8.60;;
48809;SDS011;40070;47.322;18.784;2024-01-11T06:01:41;13.64;;;7.00;;
48809;SDS011;40070;47.322;18.784;2024-01-11T06:03:39;14.23;;;7.70;;
48809;SDS011;40070;47.322;18.784;2024-01-11T06:05:40;20.40;;;8.20;;
48809;SDS011;40070;47.322;18.784;2024-01-11T06:07:41;17.53;;;7.70;;
48809;SDS011;40070;47.322;18.784;2024-01-11T06:09:42;11.05;;;6.40;;
48809;SDS011;40070;47.322;18.784;2024-01-11T06:11:43;13.42;;;6.80;;
48809;SDS011;40070;47.322;18.784;2024-01-11T06:13:44;12.39;;;6.99;;
48809;SDS011;40070;47.322;18.784;2024-01-11T06:15:45;15.30;;;7.08;;
48809;SDS011;40070;47.322;18.784;2024-01-11T06:17:46;16.07;;;7.77;;
48809;SDS011;40070;47.322;18.784;2024-01-11T06:19:47;24.42;;;11.94;;
48809;SDS011;40070;47.322;18.784;2024-01-11T06:21:48;19.08;;;9.36;;
48809;SDS011;40070;47.322;18.784;2024-01-11T06:23:49;17.65;;;8.87;;
48809;SDS011;40070;47.322;18.784;2024-01-11T06:25:50;22.06;;;9.66;;
48809;SDS011;40070;47.322;18.784;2024-01-11T06:27:51;23.95;;;9.75;;
48809;SDS011;40070;47.322;18.784;2024-01-11T06:29:52;22.87;;;10.15;;
48809;SDS011;40070;47.322;18.784;2024-01-11T06:31:53;18.99;;;10.15;;
48809;SDS011;40070;47.322;18.784;2024-01-11T06:33:54;17.69;;;9.55;;
48809;SDS011;40070;47.322;18.784;2024-01-11T06:35:55;19.12;;;10.63;;
48809;SDS011;40070;47.322;18.784;2024-01-11T06:37:56;15.82;;;8.25;;
48809;SDS011;40070;47.322;18.784;2024-01-11T06:39:57;20.91;;;9.04;;
48809;SDS011;40070;47.322;18.784;2024-01-11T06:42:01;21.56;;;9.74;;
48809;SDS011;40070;47.322;18.784;2024-01-11T06:43:59;18.21;;;7.54;;
48809;SDS011;40070;47.322;18.784;2024-01-11T06:46:06;11.23;;;6.94;;
48809;SDS011;40070;47.322;18.784;2024-01-11T06:48:01;14.00;;;7.84;;
48809;SDS011;40070;47.322;18.784;2024-01-11T06:50:02;23.67;;;8.03;;
48809;SDS011;40070;47.322;18.784;2024-01-11T06:52:03;22.69;;;10.90;;
48809;SDS011;40070;47.322;18.784;2024-01-11T06:54:07;25.14;;;8.03;;
48809;SDS011;40070;47.322;18.784;2024-01-11T06:56:15;24.12;;;11.20;;
48809;SDS011;40070;47.322;18.784;2024-01-11T06:58:09;23.88;;;9.61;;
48809;SDS011;40070;47.322;18.784;2024-01-11T07:00:10;15.17;;;6.73;;
48809;SDS011;40070;47.322;18.784;2024-01-11T07:02:11;13.81;;;6.23;;
48809;SDS011;40070;47.322;18.784;2024-01-11T07:04:12;14.47;;;7.71;;
48809;SDS011;40070;47.322;18.784;2024-01-11T07:06:13;21.16;;;8.13;;
48809;SDS011;40070;47.322;18.784;2024-01-11T07:08:14;12.72;;;7.24;;
48809;SDS011;40070;47.322;18.784;2024-01-11T07:10:15;23.48;;;8.92;;
48809;SDS011;40070;47.322;18.784;2024-01-11T07:12:16;18.57;;;7.83;;
48809;SDS011;40070;47.322;18.784;2024-01-11T07:14:17;19.78;;;8.91;;
48809;SDS011;40070;47.322;18.784;2024-01-11T07:16:18;11.94;;;6.74;;
48809;SDS011;40070;47.322;18.784;2024-01-11T07:18:19;11.95;;;7.43;;
48809;SDS011;40070;47.322;18.784;2024-01-11T07:20:20;15.50;;;6.34;;
48809;SDS011;40070;47.322;18.784;2024-01-11T07:22:21;18.85;;;7.03;;
48809;SDS011;40070;47.322;18.784;2024-01-11T07:24:22;16.84;;;9.30;;
48809;SDS011;40070;47.322;18.784;2024-01-11T07:26:23;18.72;;;8.11;;
48809;SDS011;40070;47.322;18.784;2024-01-11T07:28:24;16.12;;;7.62;;
48809;SDS011;40070;47.322;18.784;2024-01-11T07:30:25;15.58;;;6.63;;
48809;SDS011;40070;47.322;18.784;2024-01-11T07:32:31;17.20;;;8.02;;
48809;SDS011;40070;47.322;18.784;2024-01-11T07:34:32;13.79;;;8.02;;
48809;SDS011;40070;47.322;18.784;2024-01-11T07:36:34;16.12;;;8.81;;
48809;SDS011;40070;47.322;18.784;2024-01-11T07:38:35;18.60;;;9.01;;
48809;SDS011;40070;47.322;18.784;2024-01-11T07:40:39;23.56;;;9.61;;
48809;SDS011;40070;47.322;18.784;2024-01-11T07:42:40;20.32;;;8.91;;
48809;SDS011;40070;47.322;18.784;2024-01-11T07:44:41;19.16;;;9.02;;
48809;SDS011;40070;47.322;18.784;2024-01-11T07:46:42;22.81;;;9.21;;
48809;SDS011;40070;47.322;18.784;2024-01-11T07:48:43;17.57;;;8.42;;
48809;SDS011;40070;47.322;18.784;2024-01-11T07:50:44;20.77;;;8.31;;
48809;SDS011;40070;47.322;18.784;2024-01-11T07:52:45;23.03;;;9.90;;
48809;SDS011;40070;47.322;18.784;2024-01-11T07:54:46;18.76;;;8.91;;
48809;SDS011;40070;47.322;18.784;2024-01-11T07:56:47;21.68;;;9.00;;
48809;SDS011;40070;47.322;18.784;2024-01-11T07:58:48;16.85;;;8.01;;
48809;SDS011;40070;47.322;18.784;2024-01-11T08:00:49;18.56;;;8.79;;
48809;SDS011;40070;47.322;18.784;2024-01-11T08:02:50;13.11;;;7.60;;
48809;SDS011;40070;47.322;18.784;2024-01-11T08:04:51;21.26;;;10.37;;
48809;SDS011;40070;47.322;18.784;2024-01-11T08:06:52;16.40;;;9.19;;
48809;SDS011;40070;47.322;18.784;2024-01-11T08:08:53;19.31;;;7.01;;
48809;SDS011;40070;47.322;18.784;2024-01-11T08:10:57;14.25;;;8.10;;
48809;SDS011;40070;47.322;18.784;2024-01-11T08:12:57;17.93;;;8.80;;
48809;SDS011;40070;47.322;18.784;2024-01-11T08:14:59;18.92;;;8.80;;
48809;SDS011;40070;47.322;18.784;2024-01-11T08:17:00;15.43;;;8.01;;
48809;SDS011;40070;47.322;18.784;2024-01-11T08:19:00;24.47;;;9.89;;
48809;SDS011;40070;47.322;18.784;2024-01-11T08:21:02;19.23;;;9.30;;
48809;SDS011;40070;47.322;18.784;2024-01-11T08:23:03;17.56;;;9.01;;
48809;SDS011;40070;47.322;18.784;2024-01-11T08:25:04;18.50;;;8.81;;
48809;SDS011;40070;47.322;18.784;2024-01-11T08:27:05;21.57;;;9.30;;
48809;SDS011;40070;47.322;18.784;2024-01-11T08:29:06;18.89;;;9.40;;
48809;SDS011;40070;47.322;18.784;2024-01-11T08:31:07;20.49;;;9.31;;
48809;SDS011;40070;47.322;18.784;2024-01-11T08:33:08;22.46;;;8.42;;
48809;SDS011;40070;47.322;18.784;2024-01-11T08:35:09;21.75;;;7.73;;
48809;SDS011;40070;47.322;18.784;2024-01-11T08:37:10;19.30;;;7.74;;
48809;SDS011;40070;47.322;18.784;2024-01-11T08:39:11;14.83;;;7.04;;
48809;SDS011;40070;47.322;18.784;2024-01-11T08:41:12;18.63;;;8.23;;
48809;SDS011;40070;47.322;18.784;2024-01-11T08:43:12;21.85;;;8.52;;
48809;SDS011;40070;47.322;18.784;2024-01-11T08:45:14;20.79;;;10.71;;
48809;SDS011;40070;47.322;18.784;2024-01-11T08:47:15;25.72;;;9.72;;
48809;SDS011;40070;47.322;18.784;2024-01-11T08:49:16;20.45;;;8.54;;
48809;SDS011;40070;47.322;18.784;2024-01-11T08:51:17;16.79;;;8.45;;
48809;SDS011;40070;47.322;18.784;2024-01-11T08:53:17;21.52;;;8.94;;
48809;SDS011;40070;47.322;18.784;2024-01-11T08:55:18;21.78;;;9.44;;
48809;SDS011;40070;47.322;18.784;2024-01-11T08:57:19;16.51;;;8.15;;
48809;SDS011;40070;47.322;18.784;2024-01-11T08:59:20;18.05;;;8.55;;
48809;SDS011;40070;47.322;18.784;2024-01-11T09:01:21;14.52;;;7.76;;
48809;SDS011;40070;47.322;18.784;2024-01-11T09:03:22;14.70;;;7.26;;
48809;SDS011;40070;47.322;18.784;2024-01-11T09:05:23;23.02;;;8.05;;
48809;SDS011;40070;47.322;18.784;2024-01-11T09:07:24;15.97;;;7.36;;
48809;SDS011;40070;47.322;18.784;2024-01-11T09:09:25;15.99;;;8.16;;
48809;SDS011;40070;47.322;18.784;2024-01-11T09:11:26;13.90;;;7.66;;
48809;SDS011;40070;47.322;18.784;2024-01-11T09:13:27;20.33;;;7.66;;
48809;SDS011;40070;47.322;18.784;2024-01-11T09:15:28;18.25;;;7.55;;
48809;SDS011;40070;47.322;18.784;2024-01-11T09:17:29;17.17;;;7.46;;
48809;SDS011;40070;47.322;18.784;2024-01-11T09:19:34;18.08;;;7.36;;
48809;SDS011;40070;47.322;18.784;2024-01-11T09:21:32;16.09;;;7.36;;
48809;SDS011;40070;47.322;18.784;2024-01-11T09:23:34;19.44;;;8.25;;
48809;SDS011;40070;47.322;18.784;2024-01-11T09:25:35;22.41;;;8.86;;
48809;SDS011;40070;47.322;18.784;2024-01-11T09:27:36;24.14;;;7.27;;
48809;SDS011;40070;47.322;18.784;2024-01-11T09:29:41;18.21;;;7.57;;
48809;SDS011;40070;47.322;18.784;2024-01-11T09:31:38;21.38;;;8.07;;
48809;SDS011;40070;47.322;18.784;2024-01-11T09:33:39;17.22;;;7.08;;
48809;SDS011;40070;47.322;18.784;2024-01-11T09:35:40;23.84;;;7.28;;
48809;SDS011;40070;47.322;18.784;2024-01-11T09:37:41;16.55;;;6.18;;
48809;SDS011;40070;47.322;18.784;2024-01-11T09:39:42;20.00;;;7.97;;
48809;SDS011;40070;47.322;18.784;2024-01-11T09:41:51;12.84;;;6.78;;
48809;SDS011;40070;47.322;18.784;2024-01-11T09:43:45;14.64;;;6.88;;
48809;SDS011;40070;47.322;18.784;2024-01-11T09:45:48;14.67;;;5.69;;
48809;SDS011;40070;47.322;18.784;2024-01-11T09:47:49;14.56;;;6.88;;
48809;SDS011;40070;47.322;18.784;2024-01-11T09:49:53;13.66;;;6.28;;
48809;SDS011;40070;47.322;18.784;2024-01-11T09:51:54;13.10;;;5.99;;
48809;SDS011;40070;47.322;18.784;2024-01-11T09:53:55;13.89;;;6.38;;
48809;SDS011;40070;47.322;18.784;2024-01-11T09:55:57;11.74;;;5.29;;
48809;SDS011;40070;47.322;18.784;2024-01-11T09:58:01;13.82;;;6.69;;
48809;SDS011;40070;47.322;18.784;2024-01-11T10:00:04;13.84;;;6.09;;
48809;SDS011;40070;47.322;18.784;2024-01-11T10:02:04;17.88;;;7.09;;
48809;SDS011;40070;47.322;18.784;2024-01-11T10:04:05;13.66;;;6.19;;
48809;SDS011;40070;47.322;18.784;2024-01-11T10:06:07;11.23;;;5.59;;
48809;SDS011;40070;47.322;18.784;2024-01-11T10:08:09;13.10;;;5.69;;
48809;SDS011;40070;47.322;18.784;2024-01-11T10:10:10;10.34;;;5.19;;
48809;SDS011;40070;47.322;18.784;2024-01-11T10:12:11;11.93;;;4.89;;
48809;SDS011;40070;47.322;18.784;2024-01-11T10:14:12;16.18;;;6.79;;
48809;SDS011;40070;47.322;18.784;2024-01-11T10:16:13;17.36;;;7.09;;
48809;SDS011;40070;47.322;18.784;2024-01-11T10:18:14;12.65;;;5.79;;
48809;SDS011;40070;47.322;18.784;2024-01-11T10:20:15;11.59;;;5.10;;
48809;SDS011;40070;47.322;18.784;2024-01-11T10:22:17;14.83;;;5.60;;
48809;SDS011;40070;47.322;18.784;2024-01-11T10:24:20;12.96;;;6.29;;
48809;SDS011;40070;47.322;18.784;2024-01-11T10:26:21;13.76;;;5.80;;
48809;SDS011;40070;47.322;18.784;2024-01-11T10:28:22;14.37;;;5.90;;
48809;SDS011;40070;47.322;18.784;2024-01-11T10:30:24;15.17;;;5.70;;
48809;SDS011;40070;47.322;18.784;2024-01-11T10:32:27;17.57;;;6.10;;
48809;SDS011;40070;47.322;18.784;2024-01-11T10:34:25;12.52;;;5.60;;
48809;SDS011;40070;47.322;18.784;2024-01-11T10:36:30;16.49;;;6.00;;
48809;SDS011;40070;47.322;18.784;2024-01-11T10:38:31;13.21;;;6.00;;
48809;SDS011;40070;47.322;18.784;2024-01-11T10:40:33;15.00;;;6.20;;
48809;SDS011;40070;47.322;18.784;2024-01-11T10:42:50;15.20;;;5.80;;
48809;SDS011;40070;47.322;18.784;2024-01-11T10:44:50;15.90;;;6.20;;
48809;SDS011;40070;47.322;18.784;2024-01-11T10:46:52;11.53;;;5.00;;
48809;SDS011;40070;47.322;18.784;2024-01-11T10:48:55;14.43;;;5.20;;
48809;SDS011;40070;47.322;18.784;2024-01-11T10:50:58;10.35;;;4.40;;
48809;SDS011;40070;47.322;18.784;2024-01-11T10:53:03;11.26;;;5.30;;
48809;SDS011;40070;47.322;18.784;2024-01-11T10:55:01;11.16;;;4.50;;
48809;SDS011;40070;47.322;18.784;2024-01-11T10:57:02;13.65;;;4.90;;
48809;SDS011;40070;47.322;18.784;2024-01-11T10:59:04;11.76;;;4.80;;
48809;SDS011;40070;47.322;18.784;2024-01-11T11:01:06;11.95;;;5.20;;
48809;SDS011;40070;47.322;18.784;2024-01-11T11:03:07;14.65;;;5.30;;
48809;SDS011;40070;47.322;18.784;2024-01-11T11:05:09;11.56;;;5.00;;
48809;SDS011;40070;47.322;18.784;2024-01-11T11:07:10;11.66;;;5.00;;
48809;SDS011;40070;47.322;18.784;2024-01-11T11:09:11;11.66;;;5.00;;
48809;SDS011;40070;47.322;18.784;2024-01-11T11:11:12;11.56;;;4.70;;
48809;SDS011;40070;47.322;18.784;2024-01-11T11:13:16;12.46;;;5.00;;
48809;SDS011;40070;47.322;18.784;2024-01-11T11:15:17;12.75;;;5.60;;
48809;SDS011;40070;47.322;18.784;2024-01-11T11:17:18;12.85;;;4.70;;
48809;SDS011;40070;47.322;18.784;2024-01-11T11:19:22;13.54;;;4.70;;
48809;SDS011;40070;47.322;18.784;2024-01-11T11:21:23;12.35;;;5.50;;
48809;SDS011;40070;47.322;18.784;2024-01-11T11:23:36;11.46;;;5.80;;
48809;SDS011;40070;47.322;18.784;2024-01-11T11:25:39;10.67;;;4.70;;
48809;SDS011;40070;47.322;18.784;2024-01-11T11:27:44;11.57;;;4.40;;
48809;SDS011;40070;47.322;18.784;2024-01-11T11:29:49;9.88;;;4.70;;
48809;SDS011;40070;47.322;18.784;2024-01-11T11:31:59;11.38;;;4.30;;
48809;SDS011;40070;47.322;18.784;2024-01-11T11:34:01;11.88;;;5.30;;
48809;SDS011;40070;47.322;18.784;2024-01-11T11:36:05;9.48;;;4.60;;
48809;SDS011;40070;47.322;18.784;2024-01-11T11:38:16;13.97;;;5.10;;
48809;SDS011;40070;47.322;18.784;2024-01-11T11:40:13;15.27;;;5.20;;
48809;SDS011;40070;47.322;18.784;2024-01-11T11:42:13;11.67;;;5.00;;
48809;SDS011;40070;47.322;18.784;2024-01-11T11:44:19;10.27;;;4.10;;
48809;SDS011;40070;47.322;18.784;2024-01-11T11:46:21;10.37;;;4.10;;
48809;SDS011;40070;47.322;18.784;2024-01-11T11:50:41;10.76;;;4.30;;